Time;durP1;ratioP1;P1;durP2;ratioP2;P2;SDS_P1;SDS_P2;PMS_P1;PMS_P2;Temp;Humidity;BMP_temperature;BMP_pressure;BME280_temperature;BME280_humidity;BME280_pressure;Samples;Min_cycle;Max_cycle;Signal;HPM_P1;HPM_P2
2023/06/30 00:02:27;0.00;0.00;0.62;0.00;0.00;0.62;12.23;11.03;;;32.10;26.70;;;;;;2223480;62;20397;-64
2023/06/30 00:05:13;0.00;0.00;0.62;0.00;0.00;0.62;13.60;12.30;;;32.10;26.70;;;;;;2224608;62;20404;-64
2023/06/30 00:07:58;0.00;0.00;0.62;0.00;0.00;0.62;12.80;11.53;;;32.10;27.20;;;;;;2224759;62;20521;-64
2023/06/30 00:10:43;0.00;0.00;0.62;0.00;0.00;0.62;12.97;11.73;;;32.10;26.70;;;;;;2223841;62;20369;-64
2023/06/30 00:13:28;0.00;0.00;0.62;0.00;0.00;0.62;13.10;11.80;;;32.10;26.70;;;;;;2224699;62;20405;-64
2023/06/30 00:16:13;0.00;0.00;0.62;0.00;0.00;0.62;12.63;11.40;;;32.10;26.70;;;;;;2224751;62;20373;-62
2023/06/30 00:18:57;0.00;0.00;0.62;0.00;0.00;0.62;13.97;12.47;;;32.10;26.70;;;;;;2223882;62;20458;-63
2023/06/30 00:21:44;0.00;0.00;0.62;0.00;0.00;0.62;14.30;12.77;;;32.10;26.70;;;;;;2224373;62;21017;-62
2023/06/30 00:24:29;0.00;0.00;0.62;0.00;0.00;0.62;13.27;11.90;;;32.10;26.70;;;;;;2223729;62;20445;-63
2023/06/30 00:27:14;0.00;0.00;0.62;0.00;0.00;0.62;14.87;13.37;;;32.10;26.80;;;;;;2224628;62;20364;-64
2023/06/30 00:29:59;0.00;0.00;0.62;0.00;0.00;0.62;14.33;12.83;;;32.10;26.70;;;;;;2224085;62;20493;-63
2023/06/30 00:32:45;0.00;0.00;0.62;0.00;0.00;0.62;14.30;12.90;;;32.10;26.70;;;;;;2220537;62;20373;-62
2023/06/30 00:35:30;0.00;0.00;0.62;0.00;0.00;0.62;14.60;13.20;;;32.10;26.70;;;;;;2224542;62;20396;-63
2023/06/30 00:38:16;0.00;0.00;0.62;0.00;0.00;0.62;14.07;12.60;;;32.10;27.00;;;;;;2221149;62;20952;-63
2023/06/30 00:41:01;0.00;0.00;0.62;0.00;0.00;0.62;14.40;13.00;;;32.10;26.80;;;;;;2223898;62;20417;-65
2023/06/30 00:43:45;0.00;0.00;0.62;0.00;0.00;0.62;14.60;13.10;;;32.00;26.70;;;;;;2224801;62;20384;-60
2023/06/30 00:46:33;0.00;0.00;0.62;0.00;0.00;0.62;14.33;12.80;;;32.10;26.80;;;;;;2223620;62;20893;-64
2023/06/30 00:49:18;0.00;0.00;0.62;0.00;0.00;0.62;13.70;12.33;;;32.00;26.70;;;;;;2224086;62;20401;-64
2023/06/30 00:52:04;0.00;0.00;0.62;0.00;0.00;0.62;15.23;13.63;;;32.10;26.80;;;;;;2224795;62;20369;-63
2023/06/30 00:54:50;0.00;0.00;0.62;0.00;0.00;0.62;13.77;12.40;;;32.00;26.70;;;;;;2220514;62;20389;-63
2023/06/30 00:57:35;0.00;0.00;0.62;0.00;0.00;0.62;13.30;11.70;;;32.00;26.70;;;;;;2224729;62;20465;-64
2023/06/30 01:00:20;0.00;0.00;0.62;0.00;0.00;0.62;13.53;12.13;;;32.10;26.80;;;;;;2221225;62;20370;-62
2023/06/30 01:03:11;0.00;0.00;0.62;0.00;0.00;0.62;13.40;12.00;;;32.00;26.70;;;;;;2220592;62;20397;-64
2023/06/30 01:06:14;0.00;0.00;0.62;0.00;0.00;0.62;13.63;12.23;;;32.00;26.70;;;;;;2221324;62;20410;-63
2023/06/30 01:09:07;0.00;0.00;0.62;0.00;0.00;0.62;14.23;12.77;;;32.00;26.70;;;;;;2220094;62;20813;-63
2023/06/30 01:11:54;0.00;0.00;0.62;0.00;0.00;0.62;13.23;11.93;;;32.00;26.70;;;;;;2221430;62;20365;-63
2023/06/30 01:14:39;0.00;0.00;0.62;0.00;0.00;0.62;13.30;12.00;;;32.00;26.80;;;;;;2224674;62;20541;-63
2023/06/30 01:17:26;0.00;0.00;0.62;0.00;0.00;0.62;14.07;12.67;;;32.00;26.70;;;;;;2221854;62;20438;-63
2023/06/30 01:20:13;0.00;0.00;0.62;0.00;0.00;0.62;14.13;12.73;;;32.00;26.70;;;;;;2224049;62;20413;-61
2023/06/30 01:23:06;0.00;0.00;0.62;0.00;0.00;0.62;13.83;12.47;;;32.00;26.80;;;;;;2224464;62;20952;-63
2023/06/30 01:25:52;0.00;0.00;0.62;0.00;0.00;0.62;13.67;12.37;;;32.00;26.80;;;;;;2224106;62;20425;-63
2023/06/30 01:28:38;0.00;0.00;0.62;0.00;0.00;0.62;13.53;12.23;;;32.00;26.80;;;;;;2224116;62;20392;-64
2023/06/30 01:31:25;0.00;0.00;0.62;0.00;0.00;0.62;13.00;11.60;;;32.00;26.80;;;;;;2223119;62;20385;-63
2023/06/30 01:34:10;0.00;0.00;0.62;0.00;0.00;0.62;12.73;11.50;;;32.00;26.80;;;;;;2224750;62;20389;-62
2023/06/30 01:36:54;0.00;0.00;0.62;0.00;0.00;0.62;13.77;12.37;;;32.00;26.80;;;;;;2224568;62;20452;-62
2023/06/30 01:39:40;0.00;0.00;0.62;0.00;0.00;0.62;14.00;11.83;;;32.00;26.80;;;;;;2222980;62;20365;-63
2023/06/30 01:42:26;0.00;0.00;0.62;0.00;0.00;0.62;12.67;11.47;;;32.00;26.80;;;;;;2224072;62;20418;-64
2023/06/30 01:45:16;0.00;0.00;0.62;0.00;0.00;0.62;12.50;11.20;;;32.00;26.80;;;;;;2224120;62;20365;-64
2023/06/30 01:48:01;0.00;0.00;0.62;0.00;0.00;0.62;13.40;12.10;;;31.90;26.80;;;;;;2224427;62;20373;-62
2023/06/30 01:50:46;0.00;0.00;0.62;0.00;0.00;0.62;13.27;12.00;;;31.90;26.80;;;;;;2223606;62;20365;-63
2023/06/30 01:53:31;0.00;0.00;0.62;0.00;0.00;0.62;13.60;12.20;;;31.90;26.80;;;;;;2223116;62;20392;-62
2023/06/30 01:56:16;0.00;0.00;0.62;0.00;0.00;0.62;12.27;11.07;;;31.90;26.80;;;;;;2224430;62;20369;-61
2023/06/30 01:59:01;0.00;0.00;0.62;0.00;0.00;0.62;12.80;11.57;;;31.90;26.80;;;;;;2223450;62;20832;-62
2023/06/30 02:01:48;0.00;0.00;0.62;0.00;0.00;0.62;12.23;11.00;;;31.90;26.80;;;;;;2222951;62;20393;-63
2023/06/30 02:04:33;0.00;0.00;0.62;0.00;0.00;0.62;12.77;11.40;;;31.90;26.80;;;;;;2224147;62;20402;-63
2023/06/30 02:07:17;0.00;0.00;0.62;0.00;0.00;0.62;12.50;11.20;;;31.90;26.80;;;;;;2224335;62;20400;-62
2023/06/30 02:10:03;0.00;0.00;0.62;0.00;0.00;0.62;12.80;11.50;;;31.90;26.80;;;;;;2223351;62;20437;-64
2023/06/30 02:12:47;0.00;0.00;0.62;0.00;0.00;0.62;12.60;11.30;;;31.90;26.80;;;;;;2224212;62;20401;-63
2023/06/30 02:15:32;0.00;0.00;0.62;0.00;0.00;0.62;13.43;12.03;;;31.90;26.80;;;;;;2223008;62;20777;-67
2023/06/30 02:18:22;0.00;0.00;0.62;0.00;0.00;0.62;12.13;10.93;;;31.90;26.80;;;;;;2223207;62;20401;-63
2023/06/30 02:21:06;0.00;0.00;0.62;0.00;0.00;0.62;12.93;11.63;;;31.90;26.90;;;;;;2224175;62;20386;-62
2023/06/30 02:23:51;0.00;0.00;0.62;0.00;0.00;0.62;12.50;11.30;;;31.90;26.90;;;;;;2223274;62;20384;-61
2023/06/30 02:26:36;0.00;0.00;0.62;0.00;0.00;0.62;12.77;11.50;;;31.90;26.90;;;;;;2224001;62;20896;-62
2023/06/30 02:29:20;0.00;0.00;0.62;0.00;0.00;0.62;12.00;10.90;;;31.90;26.90;;;;;;2223729;62;20481;-63
2023/06/30 02:32:06;0.00;0.00;0.62;0.00;0.00;0.62;10.73;9.63;;;31.80;26.80;;;;;;2223597;62;20421;-60
2023/06/30 02:34:52;0.00;0.00;0.62;0.00;0.00;0.62;11.87;10.53;;;31.90;26.90;;;;;;2224291;62;20422;-63
2023/06/30 02:37:38;0.00;0.00;0.62;0.00;0.00;0.62;11.97;10.80;;;31.90;27.40;;;;;;2223676;62;20470;-63
2023/06/30 02:40:26;0.00;0.00;0.62;0.00;0.00;0.62;12.57;11.30;;;31.80;26.80;;;;;;2223884;62;20948;-63
2023/06/30 02:43:10;0.00;0.00;0.62;0.00;0.00;0.62;12.23;10.93;;;31.90;26.90;;;;;;2224183;62;20477;-63
2023/06/30 02:45:55;0.00;0.00;0.62;0.00;0.00;0.62;11.50;10.30;;;31.90;26.90;;;;;;2223354;62;20900;-63
2023/06/30 02:48:40;0.00;0.00;0.62;0.00;0.00;0.62;11.00;9.90;;;31.80;26.90;;;;;;2223408;62;20392;-63
2023/06/30 02:51:26;0.00;0.00;0.62;0.00;0.00;0.62;11.40;10.13;;;31.80;26.90;;;;;;2223703;62;20398;-66
2023/06/30 02:54:11;0.00;0.00;0.62;0.00;0.00;0.62;10.70;9.70;;;31.80;26.90;;;;;;2223095;62;20442;-61
2023/06/30 02:56:55;0.00;0.00;0.62;0.00;0.00;0.62;11.40;10.20;;;31.80;26.90;;;;;;2223808;62;20381;-61
2023/06/30 02:59:41;0.00;0.00;0.62;0.00;0.00;0.62;10.53;9.50;;;31.80;26.90;;;;;;2225202;62;20373;-63
2023/06/30 03:02:27;0.00;0.00;0.62;0.00;0.00;0.62;9.83;8.83;;;31.80;27.50;;;;;;2223528;62;20369;-63
2023/06/30 03:05:11;0.00;0.00;0.62;0.00;0.00;0.62;12.07;10.80;;;31.80;27.00;;;;;;2224359;62;20377;-63
2023/06/30 03:07:59;0.00;0.00;0.62;0.00;0.00;0.62;10.47;9.47;;;31.80;27.00;;;;;;2222937;62;20457;-64
2023/06/30 03:10:44;0.00;0.00;0.62;0.00;0.00;0.62;10.00;9.00;;;31.80;27.00;;;;;;2223867;62;20681;-63
2023/06/30 03:13:29;0.00;0.00;0.62;0.00;0.00;0.62;9.23;8.37;;;31.80;27.00;;;;;;2223925;62;20413;-72
2023/06/30 03:16:14;0.00;0.00;0.62;0.00;0.00;0.62;10.83;9.53;;;31.80;27.00;;;;;;2223045;62;20381;-63
2023/06/30 03:18:59;0.00;0.00;0.62;0.00;0.00;0.62;8.90;8.00;;;31.80;27.00;;;;;;2220733;62;20373;-63
2023/06/30 03:21:44;0.00;0.00;0.62;0.00;0.00;0.62;9.30;8.40;;;31.80;27.00;;;;;;2220472;62;20372;-63
2023/06/30 03:24:30;0.00;0.00;0.62;0.00;0.00;0.62;9.63;8.70;;;31.80;27.00;;;;;;2220903;62;20385;-64
2023/06/30 03:27:15;0.00;0.00;0.62;0.00;0.00;0.62;9.00;8.10;;;31.80;27.00;;;;;;2221015;62;20397;-62
2023/06/30 03:30:00;0.00;0.00;0.62;0.00;0.00;0.62;8.10;7.40;;;31.80;27.00;;;;;;2222281;62;20944;-63
2023/06/30 03:32:45;0.00;0.00;0.62;0.00;0.00;0.62;8.03;7.23;;;31.80;27.00;;;;;;2221044;62;20775;-61
2023/06/30 03:35:30;0.00;0.00;0.62;0.00;0.00;0.62;8.40;7.40;;;31.80;27.00;;;;;;2221108;62;20457;-63
2023/06/30 03:38:15;0.00;0.00;0.62;0.00;0.00;0.62;9.20;8.37;;;31.80;27.00;;;;;;2220377;62;20509;-63
2023/06/30 03:41:02;0.00;0.00;0.62;0.00;0.00;0.62;7.83;7.03;;;31.80;27.00;;;;;;2221644;62;20369;-63
2023/06/30 03:43:48;0.00;0.00;0.62;0.00;0.00;0.62;9.27;8.37;;;31.80;27.00;;;;;;2221350;62;20397;-63
2023/06/30 03:46:33;0.00;0.00;0.62;0.00;0.00;0.62;7.77;7.07;;;31.70;27.00;;;;;;2221705;62;20430;-63
2023/06/30 03:49:17;0.00;0.00;0.62;0.00;0.00;0.62;7.70;6.97;;;31.70;27.00;;;;;;2224231;62;20420;-62
2023/06/30 03:52:02;0.00;0.00;0.62;0.00;0.00;0.62;7.23;6.53;;;31.70;27.00;;;;;;2223728;62;20409;-68
2023/06/30 03:54:48;0.00;0.00;0.62;0.00;0.00;0.62;7.10;6.40;;;31.70;27.00;;;;;;2221711;62;20412;-63
2023/06/30 03:57:35;0.00;0.00;0.62;0.00;0.00;0.62;7.50;6.80;;;31.70;27.00;;;;;;2221735;62;20873;-62
2023/06/30 04:00:20;0.00;0.00;0.62;0.00;0.00;0.62;6.90;6.23;;;31.70;27.00;;;;;;2223627;62;20450;-63
2023/06/30 04:03:05;0.00;0.00;0.62;0.00;0.00;0.62;7.43;6.70;;;31.70;27.00;;;;;;2224762;62;20446;-63
2023/06/30 04:05:49;0.00;0.00;0.62;0.00;0.00;0.62;6.60;5.90;;;31.70;27.00;;;;;;2224570;62;20909;-62
2023/06/30 04:08:34;0.00;0.00;0.62;0.00;0.00;0.62;6.60;5.90;;;31.70;27.00;;;;;;2224305;62;20399;-63
2023/06/30 04:11:19;0.00;0.00;0.62;0.00;0.00;0.62;6.57;5.57;;;31.70;27.00;;;;;;2224655;62;20373;-63
2023/06/30 04:14:06;0.00;0.00;0.62;0.00;0.00;0.62;6.87;6.27;;;31.70;27.00;;;;;;2223884;62;20396;-63
2023/06/30 04:16:50;0.00;0.00;0.62;0.00;0.00;0.62;7.20;5.50;;;31.70;27.00;;;;;;2224828;62;20380;-63
2023/06/30 04:19:35;0.00;0.00;0.62;0.00;0.00;0.62;6.63;5.70;;;31.70;27.00;;;;;;2224178;62;20377;-63
2023/06/30 04:22:19;0.00;0.00;0.62;0.00;0.00;0.62;6.23;5.63;;;31.70;26.90;;;;;;2223877;62;20919;-63
2023/06/30 04:25:06;0.00;0.00;0.62;0.00;0.00;0.62;6.60;6.00;;;31.70;27.00;;;;;;2224532;62;20414;-63
2023/06/30 04:27:51;0.00;0.00;0.62;0.00;0.00;0.62;6.30;5.70;;;31.70;27.00;;;;;;2224796;62;20372;-63
2023/06/30 04:30:37;0.00;0.00;0.62;0.00;0.00;0.62;6.10;5.50;;;31.70;26.90;;;;;;2224002;62;21066;-61
2023/06/30 04:33:21;0.00;0.00;0.62;0.00;0.00;0.62;7.20;5.80;;;31.60;27.50;;;;;;2224629;62;20396;-62
2023/06/30 04:36:07;0.00;0.00;0.62;0.00;0.00;0.62;5.90;5.33;;;31.70;26.90;;;;;;2223648;62;20380;-62
2023/06/30 04:38:52;0.00;0.00;0.62;0.00;0.00;0.62;6.40;5.60;;;31.70;26.90;;;;;;2223759;62;20486;-63
2023/06/30 04:41:37;0.00;0.00;0.62;0.00;0.00;0.62;5.30;4.80;;;31.70;27.00;;;;;;2224481;62;20843;-63
2023/06/30 04:44:22;0.00;0.00;0.62;0.00;0.00;0.62;5.97;5.20;;;31.70;27.00;;;;;;2223900;62;20384;-63
2023/06/30 04:47:08;0.00;0.00;0.62;0.00;0.00;0.62;5.13;4.63;;;31.60;26.90;;;;;;2224394;62;20517;-62
2023/06/30 04:49:53;0.00;0.00;0.62;0.00;0.00;0.62;4.73;4.30;;;31.70;27.00;;;;;;2224247;62;20449;-63
2023/06/30 04:52:38;0.00;0.00;0.62;0.00;0.00;0.62;5.27;4.77;;;31.60;26.90;;;;;;2223769;62;20401;-62
2023/06/30 04:55:22;0.00;0.00;0.62;0.00;0.00;0.62;6.80;4.67;;;31.60;26.90;;;;;;2224494;62;20968;-63
2023/06/30 04:58:07;0.00;0.00;0.62;0.00;0.00;0.62;4.93;4.33;;;31.60;26.90;;;;;;2223812;62;20417;-63
2023/06/30 05:00:52;0.00;0.00;0.62;0.00;0.00;0.62;4.13;3.73;;;31.60;26.90;;;;;;2224497;62;20399;-63
2023/06/30 05:03:38;0.00;0.00;0.62;0.00;0.00;0.62;5.10;4.60;;;31.60;26.90;;;;;;2224423;62;20425;-63
2023/06/30 05:06:23;0.00;0.00;0.62;0.00;0.00;0.62;4.97;4.37;;;31.60;26.90;;;;;;2223697;62;20397;-63
2023/06/30 05:09:08;0.00;0.00;0.62;0.00;0.00;0.62;4.23;3.83;;;31.60;26.90;;;;;;2223993;62;20450;-64
2023/06/30 05:11:52;0.00;0.00;0.62;0.00;0.00;0.62;4.93;4.00;;;31.60;27.40;;;;;;2224700;62;20385;-63
2023/06/30 05:14:37;0.00;0.00;0.62;0.00;0.00;0.62;4.40;3.77;;;31.60;26.90;;;;;;2223637;62;20425;-63
2023/06/30 05:17:22;0.00;0.00;0.62;0.00;0.00;0.62;4.97;4.20;;;31.60;26.80;;;;;;2224475;62;20923;-63
2023/06/30 05:20:10;0.00;0.00;0.62;0.00;0.00;0.62;3.50;3.20;;;31.60;26.80;;;;;;2223493;62;20433;-63
2023/06/30 05:22:55;0.00;0.00;0.62;0.00;0.00;0.62;4.10;3.70;;;31.60;26.90;;;;;;2224129;62;20445;-63
2023/06/30 05:25:39;0.00;0.00;0.62;0.00;0.00;0.62;4.13;3.73;;;31.60;26.90;;;;;;2224530;62;20470;-64
2023/06/30 05:28:24;0.00;0.00;0.62;0.00;0.00;0.62;3.60;3.07;;;31.60;26.90;;;;;;2223218;62;20911;-64
2023/06/30 05:31:09;0.00;0.00;0.62;0.00;0.00;0.62;4.10;3.30;;;31.60;26.90;;;;;;2224463;62;20931;-63
2023/06/30 05:33:54;0.00;0.00;0.62;0.00;0.00;0.62;2.90;2.50;;;31.60;26.90;;;;;;2221543;62;20417;-63
2023/06/30 05:36:40;0.00;0.00;0.62;0.00;0.00;0.62;5.10;3.13;;;31.50;26.80;;;;;;2220394;62;20432;-63
2023/06/30 05:39:24;0.00;0.00;0.62;0.00;0.00;0.62;3.20;2.83;;;31.60;26.90;;;;;;2221089;62;20458;-63
2023/06/30 05:42:09;0.00;0.00;0.62;0.00;0.00;0.62;3.70;3.10;;;31.60;26.90;;;;;;2224187;62;20434;-64
2023/06/30 05:44:54;0.00;0.00;0.62;0.00;0.00;0.62;3.20;2.90;;;31.50;26.90;;;;;;2224449;62;20377;-63
2023/06/30 05:47:39;0.00;0.00;0.62;0.00;0.00;0.62;2.83;2.63;;;31.50;26.90;;;;;;2224629;62;20591;-63
2023/06/30 05:50:24;0.00;0.00;0.62;0.00;0.00;0.62;3.87;2.80;;;31.50;26.90;;;;;;2220025;62;20397;-64
2023/06/30 05:53:10;0.00;0.00;0.62;0.00;0.00;0.62;3.20;2.60;;;31.50;26.90;;;;;;2224504;62;20800;-63
2023/06/30 05:55:55;0.00;0.00;0.62;0.00;0.00;0.62;3.00;2.70;;;31.50;27.10;;;;;;2224465;62;20373;-67
2023/06/30 05:58:40;0.00;0.00;0.62;0.00;0.00;0.62;2.43;2.23;;;31.50;26.90;;;;;;2222832;62;20916;-62
2023/06/30 06:01:25;0.00;0.00;0.62;0.00;0.00;0.62;2.70;1.97;;;31.50;26.90;;;;;;2224319;62;20498;-64
2023/06/30 06:04:10;0.00;0.00;0.62;0.00;0.00;0.62;3.10;1.97;;;31.50;26.90;;;;;;2224412;62;20392;-64
2023/06/30 06:06:55;0.00;0.00;0.62;0.00;0.00;0.62;2.50;2.00;;;31.50;26.90;;;;;;2224093;62;20456;-64
2023/06/30 06:09:41;0.00;0.00;0.62;0.00;0.00;0.62;4.00;2.07;;;31.50;26.90;;;;;;2223823;62;20389;-64
2023/06/30 06:12:26;0.00;0.00;0.62;0.00;0.00;0.62;3.00;2.10;;;31.50;26.90;;;;;;2223572;62;20373;-64
2023/06/30 06:15:10;0.00;0.00;0.62;0.00;0.00;0.62;3.70;2.50;;;31.50;26.90;;;;;;2224332;62;20412;-63
2023/06/30 06:17:55;0.00;0.00;0.62;0.00;0.00;0.62;2.53;2.33;;;31.50;26.90;;;;;;2224431;62;20372;-63
2023/06/30 06:20:40;0.00;0.00;0.62;0.00;0.00;0.62;3.13;2.23;;;31.50;26.90;;;;;;2223290;62;20406;-64
2023/06/30 06:23:25;0.00;0.00;0.62;0.00;0.00;0.62;2.80;2.10;;;31.50;26.90;;;;;;2224168;62;20409;-64
2023/06/30 06:26:11;0.00;0.00;0.62;0.00;0.00;0.62;2.70;2.33;;;31.50;26.90;;;;;;2224065;62;20694;-64
2023/06/30 06:28:56;0.00;0.00;0.62;0.00;0.00;0.62;2.90;2.00;;;31.50;26.90;;;;;;2220326;62;20805;-63
2023/06/30 06:31:43;0.00;0.00;0.62;0.00;0.00;0.62;2.60;2.20;;;31.50;26.90;;;;;;2224371;62;20425;-63
2023/06/30 06:34:28;0.00;0.00;0.62;0.00;0.00;0.62;2.30;2.10;;;31.40;26.90;;;;;;2223413;62;20392;-63
2023/06/30 06:37:13;0.00;0.00;0.62;0.00;0.00;0.62;2.70;2.50;;;31.50;26.90;;;;;;2224202;62;20364;-63
2023/06/30 06:39:58;0.00;0.00;0.62;0.00;0.00;0.62;2.33;2.13;;;31.40;26.90;;;;;;2223724;62;20365;-62
2023/06/30 06:42:45;0.00;0.00;0.62;0.00;0.00;0.62;2.77;2.57;;;31.40;26.90;;;;;;2223368;62;20385;-63
2023/06/30 06:45:30;0.00;0.00;0.62;0.00;0.00;0.62;2.90;2.50;;;31.40;26.90;;;;;;2221276;62;20844;-63
2023/06/30 06:48:22;0.00;0.00;0.62;0.00;0.00;0.62;3.13;2.60;;;31.40;26.90;;;;;;2223786;62;20373;-64
2023/06/30 06:51:07;0.00;0.00;0.62;0.00;0.00;0.62;2.63;2.43;;;31.40;26.90;;;;;;2223569;62;20392;-63
2023/06/30 06:53:53;0.00;0.00;0.62;0.00;0.00;0.62;3.03;2.50;;;31.40;26.90;;;;;;2224263;62;20497;-65
2023/06/30 06:56:38;0.00;0.00;0.62;0.00;0.00;0.62;3.40;2.40;;;31.40;26.90;;;;;;2223476;62;20418;-64
2023/06/30 06:59:24;0.00;0.00;0.62;0.00;0.00;0.62;3.20;2.70;;;31.40;26.90;;;;;;2223940;62;20453;-63
2023/06/30 07:02:09;0.00;0.00;0.62;0.00;0.00;0.62;3.37;3.07;;;31.40;26.90;;;;;;2224171;62;20744;-64
2023/06/30 07:04:53;0.00;0.00;0.62;0.00;0.00;0.62;5.83;3.30;;;31.40;26.90;;;;;;2223458;62;20401;-57
2023/06/30 07:07:38;0.00;0.00;0.62;0.00;0.00;0.62;3.37;3.07;;;31.40;27.00;;;;;;2224429;62;20377;-61
2023/06/30 07:10:23;0.00;0.00;0.62;0.00;0.00;0.62;5.50;4.13;;;31.40;27.00;;;;;;2223894;62;20450;-62
2023/06/30 07:13:08;0.00;0.00;0.62;0.00;0.00;0.62;3.77;3.27;;;31.40;27.00;;;;;;2224442;62;20438;-61
2023/06/30 07:15:55;0.00;0.00;0.62;0.00;0.00;0.62;4.43;3.87;;;31.30;27.00;;;;;;2224932;62;20464;-60
2023/06/30 07:18:40;0.00;0.00;0.62;0.00;0.00;0.62;4.93;4.00;;;31.20;27.10;;;;;;2223899;62;20835;-60
2023/06/30 07:21:26;0.00;0.00;0.62;0.00;0.00;0.62;4.33;3.93;;;31.20;27.20;;;;;;2224829;62;20878;-60
2023/06/30 07:24:11;0.00;0.00;0.62;0.00;0.00;0.62;4.27;3.87;;;31.10;27.40;;;;;;2224798;62;20412;-62
2023/06/30 07:26:55;0.00;0.00;0.62;0.00;0.00;0.62;4.13;3.73;;;31.00;27.40;;;;;;2224174;62;20446;-61
2023/06/30 07:29:40;0.00;0.00;0.62;0.00;0.00;0.62;5.30;3.67;;;30.90;27.40;;;;;;2224370;62;20396;-63
2023/06/30 07:32:26;0.00;0.00;0.62;0.00;0.00;0.62;4.70;4.30;;;30.90;27.50;;;;;;2224696;62;20444;-65
2023/06/30 07:35:10;0.00;0.00;0.62;0.00;0.00;0.62;3.93;3.57;;;30.80;27.40;;;;;;2224085;62;20381;-64
2023/06/30 07:37:55;0.00;0.00;0.62;0.00;0.00;0.62;4.80;4.30;;;30.80;27.60;;;;;;2224946;62;20416;-61
2023/06/30 07:40:41;0.00;0.00;0.62;0.00;0.00;0.62;4.90;4.40;;;30.70;27.60;;;;;;2224239;62;20460;-62
2023/06/30 07:43:26;0.00;0.00;0.62;0.00;0.00;0.62;5.03;4.63;;;30.70;27.80;;;;;;2224811;62;20449;-61
2023/06/30 07:46:11;0.00;0.00;0.62;0.00;0.00;0.62;6.10;5.60;;;30.60;27.80;;;;;;2224835;62;20850;-60
2023/06/30 07:48:57;0.00;0.00;0.62;0.00;0.00;0.62;5.30;4.90;;;30.60;28.00;;;;;;2223513;62;20922;-63
2023/06/30 07:51:43;0.00;0.00;0.62;0.00;0.00;0.62;6.20;5.60;;;30.50;28.00;;;;;;2224817;62;20384;-58
2023/06/30 07:54:27;0.00;0.00;0.62;0.00;0.00;0.62;4.87;4.00;;;30.40;28.00;;;;;;2224756;62;20418;-61
2023/06/30 07:57:12;0.00;0.00;0.62;0.00;0.00;0.62;6.33;4.57;;;30.40;28.10;;;;;;2224131;62;20458;-58
2023/06/30 07:59:57;0.00;0.00;0.62;0.00;0.00;0.62;4.83;4.33;;;30.40;28.10;;;;;;2224346;62;20969;-62
2023/06/30 08:02:42;0.00;0.00;0.62;0.00;0.00;0.62;5.63;4.90;;;30.30;28.10;;;;;;2224571;62;20414;-59
2023/06/30 08:05:28;0.00;0.00;0.62;0.00;0.00;0.62;4.73;4.23;;;30.30;28.20;;;;;;2224844;62;20949;-61
2023/06/30 08:08:13;0.00;0.00;0.62;0.00;0.00;0.62;5.93;5.30;;;30.30;28.20;;;;;;2224621;62;20374;-59
2023/06/30 08:10:58;0.00;0.00;0.62;0.00;0.00;0.62;5.43;4.93;;;30.30;28.30;;;;;;2223837;62;20488;-64
2023/06/30 08:13:42;0.00;0.00;0.62;0.00;0.00;0.62;4.70;4.30;;;30.30;28.30;;;;;;2224745;62;20401;-64
2023/06/30 08:16:28;0.00;0.00;0.62;0.00;0.00;0.62;5.70;5.17;;;30.20;28.30;;;;;;2224637;62;20373;-65
2023/06/30 08:19:12;0.00;0.00;0.62;0.00;0.00;0.62;6.23;4.80;;;30.20;28.40;;;;;;2223644;62;20373;-64
2023/06/30 08:21:58;0.00;0.00;0.62;0.00;0.00;0.62;4.73;4.33;;;30.20;28.90;;;;;;2224427;62;20385;-62
2023/06/30 08:24:43;0.00;0.00;0.62;0.00;0.00;0.62;4.87;4.47;;;30.20;28.40;;;;;;2224633;62;20396;-64
2023/06/30 08:27:29;0.00;0.00;0.62;0.00;0.00;0.62;5.03;4.53;;;30.20;28.40;;;;;;2224532;62;20368;-60
2023/06/30 08:30:15;0.00;0.00;0.62;0.00;0.00;0.62;4.63;4.23;;;30.20;28.40;;;;;;2224242;62;20396;-63
2023/06/30 08:32:59;0.00;0.00;0.62;0.00;0.00;0.62;4.50;4.10;;;30.10;28.40;;;;;;2224081;62;20393;-62
2023/06/30 08:35:44;0.00;0.00;0.62;0.00;0.00;0.62;4.07;3.73;;;30.10;28.50;;;;;;2224864;62;20896;-62
2023/06/30 08:38:30;0.00;0.00;0.62;0.00;0.00;0.62;4.90;4.50;;;30.10;28.50;;;;;;2224473;62;20425;-64
2023/06/30 08:41:15;0.00;0.00;0.62;0.00;0.00;0.62;4.90;4.00;;;30.00;28.60;;;;;;2223984;62;20413;-63
2023/06/30 08:44:01;0.00;0.00;0.62;0.00;0.00;0.62;4.83;4.43;;;30.00;28.60;;;;;;2221606;62;20790;-61
2023/06/30 08:46:51;0.00;0.00;0.62;0.00;0.00;0.62;4.57;4.17;;;29.90;28.60;;;;;;2224822;62;20388;-64
2023/06/30 08:49:36;0.00;0.00;0.62;0.00;0.00;0.62;4.87;4.40;;;29.90;28.70;;;;;;2223812;62;20489;-61
2023/06/30 08:52:21;0.00;0.00;0.62;0.00;0.00;0.62;4.83;4.33;;;29.90;28.80;;;;;;2224806;62;20350;-64
2023/06/30 08:55:12;0.00;0.00;0.62;0.00;0.00;0.62;4.53;4.03;;;29.80;28.80;;;;;;2224093;62;20441;-60
2023/06/30 08:58:00;0.00;0.00;0.62;0.00;0.00;0.62;8.13;5.23;;;29.80;28.80;;;;;;2224546;62;20365;-63
2023/06/30 09:00:48;0.00;0.00;0.62;0.00;0.00;0.62;4.83;4.40;;;29.70;28.80;;;;;;2224756;62;20390;-61
2023/06/30 09:03:37;0.00;0.00;0.62;0.00;0.00;0.62;5.03;4.53;;;29.70;28.90;;;;;;2223689;62;20935;-63
2023/06/30 09:06:23;0.00;0.00;0.62;0.00;0.00;0.62;5.73;4.20;;;29.60;29.00;;;;;;2224508;62;20413;-65
2023/06/30 09:09:20;0.00;0.00;0.62;0.00;0.00;0.62;4.80;4.40;;;29.50;29.20;;;;;;2224340;62;20465;-65
2023/06/30 09:12:09;0.00;0.00;0.62;0.00;0.00;0.62;4.23;3.83;;;29.40;29.30;;;;;;2224480;62;20374;-64
2023/06/30 09:15:01;0.00;0.00;0.62;0.00;0.00;0.62;5.37;4.87;;;29.40;29.40;;;;;;2224581;62;20385;-61
2023/06/30 09:17:46;0.00;0.00;0.62;0.00;0.00;0.62;5.03;4.63;;;29.30;29.50;;;;;;2223750;62;20848;-63
2023/06/30 09:20:31;0.00;0.00;0.62;0.00;0.00;0.62;5.00;4.60;;;29.30;29.60;;;;;;2224144;62;20469;-63
2023/06/30 09:23:16;0.00;0.00;0.62;0.00;0.00;0.62;5.07;4.57;;;29.20;29.70;;;;;;2224435;62;20454;-62
2023/06/30 09:26:01;0.00;0.00;0.62;0.00;0.00;0.62;6.57;4.50;;;29.20;29.90;;;;;;2220677;62;20407;-61
2023/06/30 09:28:47;0.00;0.00;0.62;0.00;0.00;0.62;4.17;3.87;;;29.10;30.00;;;;;;2224331;62;20369;-62
2023/06/30 09:31:31;0.00;0.00;0.62;0.00;0.00;0.62;4.47;4.07;;;29.00;30.10;;;;;;2224598;62;20919;-64
2023/06/30 09:34:16;0.00;0.00;0.62;0.00;0.00;0.62;4.60;3.97;;;29.00;30.20;;;;;;2224537;62;20384;-63
2023/06/30 09:37:00;0.00;0.00;0.62;0.00;0.00;0.62;4.93;4.53;;;29.00;30.20;;;;;;2224815;62;20377;-57
2023/06/30 09:39:50;0.00;0.00;0.62;0.00;0.00;0.62;5.67;5.10;;;28.90;30.20;;;;;;2223194;62;20365;-64
2023/06/30 09:42:35;0.00;0.00;0.62;0.00;0.00;0.62;4.63;4.23;;;28.90;30.50;;;;;;2224596;62;20438;-63
2023/06/30 09:45:21;0.00;0.00;0.62;0.00;0.00;0.62;3.90;3.60;;;28.90;30.50;;;;;;2224816;62;20396;-63
2023/06/30 09:48:10;0.00;0.00;0.62;0.00;0.00;0.62;3.97;3.63;;;28.90;30.50;;;;;;2223993;62;20376;-63
2023/06/30 09:50:55;0.00;0.00;0.62;0.00;0.00;0.62;3.40;3.10;;;28.90;30.60;;;;;;2221389;62;20436;-63
2023/06/30 09:53:41;0.00;0.00;0.62;0.00;0.00;0.62;4.43;3.73;;;28.90;30.50;;;;;;2224621;62;20385;-64
2023/06/30 09:56:26;0.00;0.00;0.62;0.00;0.00;0.62;4.30;3.90;;;28.90;30.40;;;;;;2225043;62;20425;-63
2023/06/30 09:59:11;0.00;0.00;0.62;0.00;0.00;0.62;3.30;3.00;;;29.00;30.30;;;;;;2224191;62;20784;-64
2023/06/30 10:01:59;0.00;0.00;0.62;0.00;0.00;0.62;3.43;3.13;;;29.00;30.20;;;;;;2223755;62;20410;-63
2023/06/30 10:04:44;0.00;0.00;0.62;0.00;0.00;0.62;4.10;3.70;;;29.00;30.20;;;;;;2224479;62;20394;-62
2023/06/30 10:07:29;0.00;0.00;0.62;0.00;0.00;0.62;4.40;3.13;;;29.10;30.10;;;;;;2224448;62;20430;-64
2023/06/30 10:10:14;0.00;0.00;0.62;0.00;0.00;0.62;3.23;2.93;;;29.20;30.00;;;;;;2223323;62;20393;-64
2023/06/30 10:13:01;0.00;0.00;0.62;0.00;0.00;0.62;4.20;3.23;;;29.20;30.00;;;;;;2224618;62;20936;-64
2023/06/30 10:15:46;0.00;0.00;0.62;0.00;0.00;0.62;5.43;3.43;;;29.30;30.00;;;;;;2224630;62;20373;-64
2023/06/30 10:18:35;0.00;0.00;0.62;0.00;0.00;0.62;4.17;3.53;;;29.30;29.90;;;;;;2223590;62;20465;-64
2023/06/30 10:21:19;0.00;0.00;0.62;0.00;0.00;0.62;3.50;3.03;;;29.30;29.80;;;;;;2224354;62;20366;-64
2023/06/30 10:24:07;0.00;0.00;0.62;0.00;0.00;0.62;3.30;3.00;;;29.40;29.80;;;;;;2223494;62;20442;-64
2023/06/30 10:26:53;0.00;0.00;0.62;0.00;0.00;0.62;3.20;2.83;;;29.40;29.70;;;;;;2224539;62;20483;-64
2023/06/30 10:29:38;0.00;0.00;0.62;0.00;0.00;0.62;3.40;3.10;;;29.40;29.60;;;;;;2223886;62;20403;-64
2023/06/30 10:32:23;0.00;0.00;0.62;0.00;0.00;0.62;4.53;3.23;;;29.50;29.70;;;;;;2223704;62;20369;-64
2023/06/30 10:35:13;0.00;0.00;0.62;0.00;0.00;0.62;3.40;3.10;;;29.50;29.60;;;;;;2224450;62;20377;-64
2023/06/30 10:37:58;0.00;0.00;0.62;0.00;0.00;0.62;3.50;3.20;;;29.60;29.60;;;;;;2224524;62;20393;-63
2023/06/30 10:40:42;0.00;0.00;0.62;0.00;0.00;0.62;3.43;3.13;;;29.60;29.50;;;;;;2224304;62;20397;-63
2023/06/30 10:43:27;0.00;0.00;0.62;0.00;0.00;0.62;3.07;2.77;;;29.60;29.50;;;;;;2224243;62;20582;-68
2023/06/30 10:46:12;0.00;0.00;0.62;0.00;0.00;0.62;3.17;2.97;;;29.60;29.40;;;;;;2223540;62;20419;-63
2023/06/30 10:48:57;0.00;0.00;0.62;0.00;0.00;0.62;2.80;2.60;;;29.70;29.40;;;;;;2224375;62;20405;-63
2023/06/30 10:51:45;0.00;0.00;0.62;0.00;0.00;0.62;3.83;3.43;;;29.70;29.30;;;;;;2221250;62;20365;-63